Time,TemperatureF,DewpointF,PressureIn,WindDirection,WindDirectionDegrees,WindSpeedMPH,WindSpeedGustMPH,Humidity,HourlyPrecipIn,Conditions,Clouds,dailyrainin,SolarRadiationWatts/m^2,SoftwareType,DateUTC
2013-02-01 00:02:00,41.2,38.0,30.22,NW,304,0.0,-999.0,88,-99.99,,,0.00,0,weatherlink.com 1.10,2013-02-01 05:02:00,
2013-02-01 00:17:00,41.6,39.0,30.22,NW,304,0.0,-999.0,89,-99.99,,,0.00,0,weatherlink.com 1.10,2013-02-01 05:17:00,
2013-02-01 00:34:00,42.8,39.0,30.22,NW,304,0.0,-999.0,85,-99.99,,,0.00,0,weatherlink.com 1.10,2013-02-01 05:34:00,
2013-02-01 00:49:00,42.8,38.0,30.22,NW,323,0.0,-999.0,83,-99.99,,,0.00,0,weatherlink.com 1.10,2013-02-01 05:49:00,
2013-02-01 01:04:00,42.5,38.0,30.22,NW,323,0.0,-999.0,83,-99.99,,,0.00,0,weatherlink.com 1.10,2013-02-01 06:04:00,
2013-02-01 01:18:00,42.5,37.0,30.21,NNE,31,0.0,-999.0,82,-99.99,,,0.00,0,weatherlink.com 1.10,2013-02-01 06:18:00,
2013-02-01 01:32:00,42.6,37.0,30.21,NNE,31,0.0,-999.0,81,-99.99,,,0.00,0,weatherlink.com 1.10,2013-02-01 06:32:00,
2013-02-01 01:50:00,42.3,37.0,30.21,NNE,31,0.0,-999.0,82,-99.99,,,0.00,0,weatherlink.com 1.10,2013-02-01 06:50:00,
2013-02-01 02:02:00,42.1,37.0,30.21,NNE,31,0.0,-999.0,83,-99.99,,,0.00,0,weatherlink.com 1.10,2013-02-01 07:02:00,
2013-02-01 02:17:00,42.9,38.0,30.21,NE,47,0.0,-999.0,82,-99.99,,,0.00,0,weatherlink.com 1.10,2013-02-01 07:17:00,
2013-02-01 02:34:00,44.5,38.0,30.22,NE,46,0.0,-999.0,78,-99.99,,,0.00,0,weatherlink.com 1.10,2013-02-01 07:34:00,
2013-02-01 02:47:00,44.8,37.0,30.21,NNE,30,0.0,-999.0,75,-99.99,,,0.00,0,weatherlink.com 1.10,2013-02-01 07:47:00,
2013-02-01 03:04:00,44.9,36.0,30.22,NNE,24,0.0,-999.0,72,-99.99,,,0.00,0,weatherlink.com 1.10,2013-02-01 08:04:00,
2013-02-01 03:17:00,44.5,36.0,30.22,NNE,32,0.0,-999.0,72,-99.99,,,0.00,0,weatherlink.com 1.10,2013-02-01 08:17:00,
2013-02-01 03:34:00,43.5,35.0,30.23,NNE,32,0.0,-999.0,72,-99.99,,,0.00,0,weatherlink.com 1.10,2013-02-01 08:34:00,
2013-02-01 03:49:00,42.8,35.0,30.23,NNE,32,0.0,-999.0,74,-99.99,,,0.00,0,weatherlink.com 1.10,2013-02-01 08:49:00,
2013-02-01 04:04:00,42.1,35.0,30.23,NNE,32,0.0,-999.0,76,-99.99,,,0.00,0,weatherlink.com 1.10,2013-02-01 09:04:00,
2013-02-01 04:17:00,40.6,35.0,30.23,NNE,32,0.0,-999.0,80,-99.99,,,0.00,0,weatherlink.com 1.10,2013-02-01 09:17:00,
2013-02-01 04:34:00,39.2,35.0,30.23,NNE,32,0.0,-999.0,84,-99.99,,,0.00,0,weatherlink.com 1.10,2013-02-01 09:34:00,
2013-02-01 04:49:00,38.6,35.0,30.24,NNE,32,0.0,-999.0,86,-99.99,,,0.00,0,weatherlink.com 1.10,2013-02-01 09:49:00,
2013-02-01 05:04:00,39.3,36.0,30.24,NNE,32,0.0,-999.0,86,-99.99,,,0.00,0,weatherlink.com 1.10,2013-02-01 10:04:00,
2013-02-01 05:19:00,40.3,35.0,30.24,NNE,32,0.0,-999.0,82,-99.99,,,0.00,0,weatherlink.com 1.10,2013-02-01 10:19:00,
2013-02-01 05:32:00,40.9,35.0,30.25,NNE,32,0.0,-999.0,80,-99.99,,,0.00,0,weatherlink.com 1.10,2013-02-01 10:32:00,
2013-02-01 05:49:00,41.1,35.0,30.26,NNE,32,0.0,-999.0,79,-99.99,,,0.00,0,weatherlink.com 1.10,2013-02-01 10:49:00,
2013-02-01 06:04:00,40.9,35.0,30.26,NNE,32,0.0,-999.0,79,-99.99,,,0.00,0,weatherlink.com 1.10,2013-02-01 11:04:00,
2013-02-01 06:19:00,40.2,35.0,30.26,NNE,32,0.0,-999.0,80,-99.99,,,0.00,0,weatherlink.com 1.10,2013-02-01 11:19:00,
2013-02-01 06:34:00,39.9,35.0,30.27,NNE,32,0.0,-999.0,81,-99.99,,,0.00,0,weatherlink.com 1.10,2013-02-01 11:34:00,
2013-02-01 06:49:00,39.5,35.0,30.28,NNE,32,0.0,-999.0,83,-99.99,,,0.00,0,weatherlink.com 1.10,2013-02-01 11:49:00,
2013-02-01 07:04:00,39.1,35.0,30.28,NNE,32,0.0,-999.0,84,-99.99,,,0.00,0,weatherlink.com 1.10,2013-02-01 12:04:00,
2013-02-01 07:19:00,38.3,35.0,30.29,NNE,32,0.0,-999.0,86,-99.99,,,0.00,5,weatherlink.com 1.10,2013-02-01 12:19:00,
2013-02-01 07:34:00,37.8,34.0,30.29,NNE,32,0.0,-999.0,87,-99.99,,,0.00,14,weatherlink.com 1.10,2013-02-01 12:34:00,
2013-02-01 07:47:00,37.6,35.0,30.30,NNE,32,0.0,-999.0,89,-99.99,,,0.00,19,weatherlink.com 1.10,2013-02-01 12:47:00,
2013-02-01 08:04:00,40.2,36.0,30.30,NNE,32,0.0,-999.0,86,-99.99,,,0.00,47,weatherlink.com 1.10,2013-02-01 13:04:00,
2013-02-01 08:17:00,44.3,37.0,30.31,NNE,24,0.0,-999.0,75,-99.99,,,0.00,134,weatherlink.com 1.10,2013-02-01 13:17:00,
2013-02-01 08:34:00,47.6,36.0,30.32,NNE,19,4.0,-999.0,65,-99.99,,,0.00,183,weatherlink.com 1.10,2013-02-01 13:34:00,
2013-02-01 08:50:00,49.6,35.0,30.33,ENE,59,3.0,-999.0,58,-99.99,,,0.00,223,weatherlink.com 1.10,2013-02-01 13:50:00,
2013-02-01 09:02:00,51.1,35.0,30.33,ENE,57,3.0,-999.0,54,-99.99,,,0.00,274,weatherlink.com 1.10,2013-02-01 14:02:00,
2013-02-01 09:19:00,52.9,34.0,30.34,East,81,5.0,-999.0,49,-99.99,,,0.00,330,weatherlink.com 1.10,2013-02-01 14:19:00,
2013-02-01 09:32:00,53.9,34.0,30.34,NNE,30,0.0,-999.0,47,-99.99,,,0.00,374,weatherlink.com 1.10,2013-02-01 14:32:00,
2013-02-01 09:50:00,55.1,32.0,30.34,NNE,17,3.0,-999.0,41,-99.99,,,0.00,413,weatherlink.com 1.10,2013-02-01 14:50:00,
2013-02-01 10:02:00,55.9,30.0,30.34,NNE,22,0.0,-999.0,38,-99.99,,,0.00,466,weatherlink.com 1.10,2013-02-01 15:02:00,
2013-02-01 10:20:00,56.9,30.0,30.34,NE,40,3.0,-999.0,36,-99.99,,,0.00,517,weatherlink.com 1.10,2013-02-01 15:20:00,
2013-02-01 10:34:00,57.5,30.0,30.34,NE,38,2.0,-999.0,35,-99.99,,,0.00,550,weatherlink.com 1.10,2013-02-01 15:34:00,
2013-02-01 10:49:00,58.9,32.0,30.34,NNW,340,6.0,-999.0,36,-99.99,,,0.00,589,weatherlink.com 1.10,2013-02-01 15:49:00,
2013-02-01 11:04:00,58.9,30.0,30.34,North,5,3.0,-999.0,33,-99.99,,,0.00,619,weatherlink.com 1.10,2013-02-01 16:04:00,
2013-02-01 11:17:00,59.5,31.0,30.34,NE,40,1.0,-999.0,34,-99.99,,,0.00,645,weatherlink.com 1.10,2013-02-01 16:17:00,
2013-02-01 11:34:00,59.9,29.0,30.33,East,88,6.0,-999.0,31,-99.99,,,0.00,675,weatherlink.com 1.10,2013-02-01 16:34:00,
2013-02-01 11:49:00,60.7,30.0,30.33,ENE,68,2.0,-999.0,31,-99.99,,,0.00,693,weatherlink.com 1.10,2013-02-01 16:49:00,
2013-02-01 12:04:00,61.6,31.0,30.32,NE,35,2.0,-999.0,31,-99.99,,,0.00,710,weatherlink.com 1.10,2013-02-01 17:04:00,
2013-02-01 12:19:00,61.8,31.0,30.32,NNE,19,9.0,-999.0,32,-99.99,,,0.00,722,weatherlink.com 1.10,2013-02-01 17:19:00,
2013-02-01 12:32:00,62.6,34.0,30.31,ENE,65,7.0,-999.0,34,-99.99,,,0.00,733,weatherlink.com 1.10,2013-02-01 17:32:00,
2013-02-01 12:50:00,63.7,31.0,30.30,ENE,69,6.0,-999.0,29,-99.99,,,0.00,737,weatherlink.com 1.10,2013-02-01 17:50:00,
2013-02-01 13:04:00,64.2,30.0,30.30,NE,42,4.0,-999.0,28,-99.99,,,0.00,738,weatherlink.com 1.10,2013-02-01 18:04:00,
2013-02-01 13:20:00,64.3,29.0,30.28,NE,43,7.0,-999.0,27,-99.99,,,0.00,735,weatherlink.com 1.10,2013-02-01 18:20:00,
2013-02-01 13:35:00,64.7,29.0,30.28,East,90,7.0,-999.0,26,-99.99,,,0.00,731,weatherlink.com 1.10,2013-02-01 18:35:00,
2013-02-01 13:48:00,65.0,29.0,30.27,NE,42,4.0,-999.0,26,-99.99,,,0.00,714,weatherlink.com 1.10,2013-02-01 18:48:00,
2013-02-01 14:04:00,65.8,30.0,30.27,NE,43,2.0,-999.0,26,-99.99,,,0.00,694,weatherlink.com 1.10,2013-02-01 19:04:00,
2013-02-01 14:19:00,66.3,29.0,30.26,NE,51,3.0,-999.0,25,-99.99,,,0.00,677,weatherlink.com 1.10,2013-02-01 19:19:00,
2013-02-01 14:34:00,66.4,29.0,30.25,NNE,32,3.0,-999.0,25,-99.99,,,0.00,647,weatherlink.com 1.10,2013-02-01 19:34:00,
2013-02-01 14:49:00,66.6,29.0,30.25,NNE,32,0.0,-999.0,24,-99.99,,,0.00,622,weatherlink.com 1.10,2013-02-01 19:49:00,
2013-02-01 15:02:00,67.6,27.0,30.25,NW,322,5.0,-999.0,22,-99.99,,,0.00,598,weatherlink.com 1.10,2013-02-01 20:02:00,
2013-02-01 15:19:00,67.6,27.0,30.25,ENE,61,3.0,-999.0,22,-99.99,,,0.00,555,weatherlink.com 1.10,2013-02-01 20:19:00,
2013-02-01 15:34:00,67.1,25.0,30.25,WNW,294,3.0,-999.0,20,-99.99,,,0.00,517,weatherlink.com 1.10,2013-02-01 20:34:00,
2013-02-01 15:49:00,67.9,26.0,30.24,WNW,285,0.0,-999.0,21,-99.99,,,0.00,475,weatherlink.com 1.10,2013-02-01 20:49:00,
2013-02-01 16:04:00,67.8,25.0,30.25,NNE,27,0.0,-999.0,20,-99.99,,,0.00,425,weatherlink.com 1.10,2013-02-01 21:04:00,
2013-02-01 16:19:00,68.6,27.0,30.24,NE,37,4.0,-999.0,21,-99.99,,,0.00,380,weatherlink.com 1.10,2013-02-01 21:19:00,
2013-02-01 16:35:00,67.9,26.0,30.25,NNE,19,3.0,-999.0,21,-99.99,,,0.00,327,weatherlink.com 1.10,2013-02-01 21:35:00,
2013-02-01 16:49:00,66.8,25.0,30.25,ENE,71,1.0,-999.0,21,-99.99,,,0.00,267,weatherlink.com 1.10,2013-02-01 21:49:00,
2013-02-01 17:05:00,67.4,28.0,30.24,WNW,291,0.0,-999.0,23,-99.99,,,0.00,204,weatherlink.com 1.10,2013-02-01 22:05:00,
2013-02-01 17:19:00,66.8,27.0,30.24,NE,53,0.0,-999.0,22,-99.99,,,0.00,30,weatherlink.com 1.10,2013-02-01 22:19:00,
2013-02-01 17:34:00,65.3,27.0,30.24,NE,38,0.0,-999.0,24,-99.99,,,0.00,39,weatherlink.com 1.10,2013-02-01 22:34:00,
2013-02-01 17:49:00,64.0,29.0,30.25,NE,38,0.0,-999.0,27,-99.99,,,0.00,25,weatherlink.com 1.10,2013-02-01 22:49:00,
2013-02-01 18:04:00,62.0,29.0,30.25,NE,38,0.0,-999.0,29,-99.99,,,0.00,7,weatherlink.com 1.10,2013-02-01 23:04:00,
2013-02-01 18:19:00,59.8,30.0,30.25,NE,38,0.0,-999.0,32,-99.99,,,0.00,0,weatherlink.com 1.10,2013-02-01 23:19:00,
2013-02-01 18:35:00,57.5,32.0,30.25,NE,38,0.0,-999.0,38,-99.99,,,0.00,0,weatherlink.com 1.10,2013-02-01 23:35:00,
2013-02-01 18:49:00,56.2,33.0,30.25,NE,38,0.0,-999.0,41,-99.99,,,0.00,0,weatherlink.com 1.10,2013-02-01 23:49:00,
2013-02-01 19:04:00,55.1,33.0,30.25,NE,38,0.0,-999.0,44,-99.99,,,0.00,0,weatherlink.com 1.10,2013-02-02 00:04:00,
2013-02-01 19:19:00,54.2,34.0,30.24,NE,38,0.0,-999.0,47,-99.99,,,0.00,0,weatherlink.com 1.10,2013-02-02 00:19:00,
2013-02-01 19:34:00,53.1,34.0,30.24,NE,38,0.0,-999.0,48,-99.99,,,0.00,0,weatherlink.com 1.10,2013-02-02 00:34:00,
2013-02-01 19:49:00,51.9,36.0,30.25,NE,38,0.0,-999.0,56,-99.99,,,0.00,0,weatherlink.com 1.10,2013-02-02 00:49:00,
2013-02-01 20:04:00,50.4,38.0,30.25,NE,38,0.0,-999.0,62,-99.99,,,0.00,0,weatherlink.com 1.10,2013-02-02 01:04:00,
2013-02-01 20:19:00,49.2,38.0,30.25,NE,38,0.0,-999.0,65,-99.99,,,0.00,0,weatherlink.com 1.10,2013-02-02 01:19:00,
2013-02-01 20:34:00,48.0,38.0,30.25,NE,38,0.0,-999.0,68,-99.99,,,0.00,0,weatherlink.com 1.10,2013-02-02 01:34:00,
2013-02-01 20:49:00,47.9,38.0,30.26,NW,319,0.0,-999.0,69,-99.99,,,0.00,0,weatherlink.com 1.10,2013-02-02 01:49:00,
2013-02-01 21:04:00,47.3,38.0,30.27,NW,319,0.0,-999.0,69,-99.99,,,0.00,0,weatherlink.com 1.10,2013-02-02 02:04:00,
2013-02-01 21:19:00,47.4,36.0,30.27,NW,319,0.0,-999.0,66,-99.99,,,0.00,0,weatherlink.com 1.10,2013-02-02 02:19:00,
2013-02-01 21:34:00,47.3,37.0,30.27,NW,319,0.0,-999.0,67,-99.99,,,0.00,0,weatherlink.com 1.10,2013-02-02 02:34:00,
2013-02-01 21:49:00,47.1,37.0,30.27,NW,319,0.0,-999.0,69,-99.99,,,0.00,0,weatherlink.com 1.10,2013-02-02 02:49:00,
2013-02-01 22:05:00,47.0,37.0,30.28,NW,319,0.0,-999.0,68,-99.99,,,0.00,0,weatherlink.com 1.10,2013-02-02 03:05:00,
2013-02-01 22:19:00,46.5,37.0,30.28,NW,319,0.0,-999.0,69,-99.99,,,0.00,0,weatherlink.com 1.10,2013-02-02 03:19:00,
2013-02-01 22:34:00,46.4,38.0,30.29,NW,319,0.0,-999.0,72,-99.99,,,0.00,0,weatherlink.com 1.10,2013-02-02 03:34:00,
2013-02-01 22:49:00,45.7,38.0,30.28,NW,319,0.0,-999.0,74,-99.99,,,0.00,0,weatherlink.com 1.10,2013-02-02 03:49:00,
2013-02-01 23:04:00,44.9,37.0,30.28,NW,319,0.0,-999.0,75,-99.99,,,0.00,0,weatherlink.com 1.10,2013-02-02 04:04:00,
2013-02-01 23:19:00,44.1,38.0,30.28,NW,319,0.0,-999.0,78,-99.99,,,0.00,0,weatherlink.com 1.10,2013-02-02 04:19:00,
2013-02-01 23:34:00,43.8,38.0,30.28,NW,319,0.0,-999.0,81,-99.99,,,0.00,0,weatherlink.com 1.10,2013-02-02 04:34:00,
2013-02-01 23:49:00,43.6,39.0,30.28,NW,319,0.0,-999.0,84,-99.99,,,0.00,0,weatherlink.com 1.10,2013-02-02 04:49:00,